createdAt,value
2017-05-30T00:01:30.424Z,17.30
2017-05-30T00:03:58.987Z,17.30
2017-05-30T00:06:27.285Z,17.30
2017-05-30T00:08:55.587Z,17.20
2017-05-30T00:11:24.339Z,17.20
2017-05-30T00:13:52.648Z,17.10
2017-05-30T00:16:20.941Z,17.00
2017-05-30T00:18:49.467Z,16.90
2017-05-30T00:21:17.779Z,16.80
2017-05-30T00:23:46.080Z,16.70
2017-05-30T00:26:14.622Z,16.60
2017-05-30T00:28:42.942Z,16.50
2017-05-30T00:31:11.244Z,16.50
2017-05-30T00:33:39.799Z,16.50
2017-05-30T00:36:08.109Z,16.40
2017-05-30T00:38:36.429Z,16.30
2017-05-30T00:41:05.070Z,16.40
2017-05-30T00:43:33.374Z,16.40
2017-05-30T00:46:01.673Z,16.50
2017-05-30T00:48:30.198Z,16.50
2017-05-30T00:50:58.500Z,16.40
2017-05-30T00:53:26.806Z,16.40
2017-05-30T00:55:55.508Z,16.40
2017-05-30T00:58:23.809Z,16.40
2017-05-30T01:00:52.103Z,16.40
2017-05-30T01:03:20.651Z,16.30
2017-05-30T01:05:49.005Z,16.30
2017-05-30T01:08:17.308Z,16.30
2017-05-30T01:10:45.850Z,16.30
2017-05-30T01:13:14.166Z,16.30
2017-05-30T01:15:42.481Z,16.40
2017-05-30T01:18:11.003Z,16.40
2017-05-30T01:20:39.292Z,16.40
2017-05-30T01:23:07.589Z,16.40
2017-05-30T01:25:36.117Z,16.30
2017-05-30T01:28:04.423Z,16.30
2017-05-30T01:30:32.730Z,16.30
2017-05-30T01:33:01.248Z,16.20
2017-05-30T01:35:29.555Z,16.20
2017-05-30T01:37:57.863Z,16.20
2017-05-30T01:40:26.388Z,16.20
2017-05-30T01:42:54.695Z,16.20
2017-05-30T01:45:23.011Z,16.20
2017-05-30T01:47:51.539Z,16.30
2017-05-30T01:50:19.827Z,16.30
2017-05-30T01:52:48.144Z,16.40
2017-05-30T01:55:16.688Z,16.40
2017-05-30T01:57:44.974Z,16.40
2017-05-30T02:00:13.298Z,16.40
2017-05-30T02:02:41.836Z,16.50
2017-05-30T02:05:10.156Z,16.50
2017-05-30T02:07:38.461Z,16.50
2017-05-30T02:10:06.979Z,16.60
2017-05-30T02:12:35.274Z,16.50
2017-05-30T02:15:03.575Z,16.60
2017-05-30T02:17:32.105Z,16.50
2017-05-30T02:20:00.465Z,16.40
2017-05-30T02:22:28.755Z,16.30
2017-05-30T02:24:57.333Z,16.20
2017-05-30T02:27:25.655Z,16.20
2017-05-30T02:29:53.958Z,16.10
2017-05-30T02:32:22.491Z,16.10
2017-05-30T02:34:50.784Z,16.10
2017-05-30T02:37:19.083Z,16.20
2017-05-30T02:39:47.603Z,16.30
2017-05-30T02:42:15.892Z,16.30
2017-05-30T02:44:44.209Z,16.40
2017-05-30T02:47:12.742Z,16.40
2017-05-30T02:49:41.053Z,16.40
2017-05-30T02:52:09.368Z,16.40
2017-05-30T02:54:37.872Z,16.50
2017-05-30T02:57:06.200Z,16.40
2017-05-30T02:59:34.506Z,16.40
2017-05-30T03:02:03.043Z,16.30
2017-05-30T03:04:31.342Z,16.20
2017-05-30T03:06:59.643Z,16.10
2017-05-30T03:09:28.189Z,16.00
2017-05-30T03:11:56.505Z,16.00
2017-05-30T03:14:24.822Z,16.00
2017-05-30T03:16:53.337Z,16.10
2017-05-30T03:19:21.659Z,16.20
2017-05-30T03:21:49.959Z,16.30
2017-05-30T03:24:18.490Z,16.30
2017-05-30T03:26:46.795Z,16.30
2017-05-30T03:29:15.127Z,16.20
2017-05-30T03:31:43.853Z,16.10
2017-05-30T03:34:12.163Z,16.10
2017-05-30T03:36:40.451Z,16.20
2017-05-30T03:39:09.051Z,16.30
2017-05-30T03:41:37.368Z,16.20
2017-05-30T03:44:05.675Z,16.20
2017-05-30T03:46:34.213Z,16.20
2017-05-30T03:49:02.515Z,16.20
2017-05-30T03:51:30.813Z,16.10
2017-05-30T03:53:59.413Z,16.10
2017-05-30T03:56:27.709Z,16.20
2017-05-30T03:58:56.001Z,16.10
2017-05-30T04:01:24.633Z,16.10
2017-05-30T04:03:52.935Z,16.10
2017-05-30T04:06:21.235Z,16.10
2017-05-30T04:08:49.756Z,16.10
2017-05-30T04:11:18.054Z,16.10
2017-05-30T04:13:46.369Z,16.20
2017-05-30T04:16:14.968Z,16.20
2017-05-30T04:18:43.255Z,16.20
2017-05-30T04:21:11.556Z,16.40
2017-05-30T04:23:40.093Z,16.40
2017-05-30T04:26:08.390Z,16.40
2017-05-30T04:28:36.704Z,16.50
2017-05-30T04:31:05.324Z,16.60
2017-05-30T04:33:33.625Z,16.70
2017-05-30T04:36:01.931Z,16.80
2017-05-30T04:38:30.476Z,17.00
2017-05-30T04:40:58.014Z,17.00
2017-05-30T04:43:26.314Z,17.50
2017-05-30T04:45:54.834Z,17.80
2017-05-30T04:48:23.131Z,18.10
2017-05-30T04:50:51.424Z,18.40
2017-05-30T04:53:19.937Z,18.60
2017-05-30T04:55:48.253Z,18.80
2017-05-30T04:58:16.543Z,18.90
2017-05-30T05:00:45.060Z,19.10
2017-05-30T05:03:13.344Z,19.30
2017-05-30T05:05:41.644Z,19.10
2017-05-30T05:08:10.236Z,18.90
2017-05-30T05:10:38.544Z,18.90
2017-05-30T05:13:06.834Z,18.90
2017-05-30T05:15:35.366Z,19.00
2017-05-30T05:18:03.665Z,19.30
2017-05-30T05:20:32.633Z,19.90
2017-05-30T05:23:01.144Z,20.00
2017-05-30T05:25:29.444Z,20.00
2017-05-30T05:27:57.748Z,20.80
2017-05-30T05:30:26.289Z,21.50
2017-05-30T05:32:54.614Z,22.10
2017-05-30T05:35:22.907Z,22.60
2017-05-30T05:37:51.484Z,23.00
2017-05-30T05:40:19.778Z,23.40
2017-05-30T05:42:48.064Z,23.90
2017-05-30T05:45:16.570Z,24.40
2017-05-30T05:47:44.870Z,24.60
2017-05-30T05:50:13.197Z,24.20
2017-05-30T05:52:41.720Z,23.70
2017-05-30T05:55:10.026Z,23.70
2017-05-30T05:57:38.335Z,24.50
2017-05-30T06:00:06.870Z,24.90
2017-05-30T06:02:35.169Z,25.20
2017-05-30T06:05:03.476Z,25.70
2017-05-30T06:07:32.178Z,26.20
2017-05-30T06:10:00.483Z,26.00
2017-05-30T06:12:28.798Z,26.20
2017-05-30T06:14:57.317Z,26.50
2017-05-30T06:17:25.621Z,26.60
2017-05-30T06:19:53.941Z,27.20
2017-05-30T06:22:22.540Z,28.10
2017-05-30T06:24:50.858Z,28.70
2017-05-30T06:27:18.387Z,28.60
2017-05-30T06:29:46.941Z,28.70
2017-05-30T06:32:15.246Z,28.70
2017-05-30T06:34:43.566Z,28.30
2017-05-30T06:37:12.090Z,28.40
2017-05-30T06:39:40.388Z,28.10
2017-05-30T06:42:08.702Z,28.10
2017-05-30T06:44:37.219Z,28.20
2017-05-30T06:47:05.542Z,28.00
2017-05-30T06:49:35.179Z,28.10
2017-05-30T06:52:05.219Z,28.30
2017-05-30T06:57:08.744Z,29.00
2017-05-30T06:59:37.114Z,29.40
2017-05-30T07:02:05.481Z,29.30
2017-05-30T07:04:34.213Z,29.80
2017-05-30T07:07:02.547Z,30.20
2017-05-30T07:09:30.852Z,30.80
2017-05-30T07:11:59.405Z,31.10
2017-05-30T07:14:27.701Z,30.90
2017-05-30T07:16:56.010Z,29.70
2017-05-30T07:19:24.531Z,29.10
2017-05-30T07:21:52.833Z,29.40
2017-05-30T07:24:21.132Z,29.70
2017-05-30T07:26:49.669Z,29.40
2017-05-30T07:29:20.812Z,29.90
2017-05-30T07:31:49.128Z,29.10
2017-05-30T07:34:17.663Z,28.60
2017-05-30T07:36:45.989Z,28.80
2017-05-30T07:39:14.288Z,28.30
2017-05-30T07:41:42.821Z,28.70
2017-05-30T07:44:11.127Z,28.80
2017-05-30T07:46:39.421Z,29.40
2017-05-30T07:49:08.574Z,29.40
2017-05-30T07:51:36.876Z,29.80
2017-05-30T07:54:05.160Z,29.70
2017-05-30T07:56:33.898Z,29.30
2017-05-30T07:59:02.210Z,29.30
2017-05-30T08:01:30.513Z,28.90
2017-05-30T08:03:59.192Z,28.60
2017-05-30T08:06:27.510Z,28.30
2017-05-30T08:08:55.812Z,28.60
2017-05-30T08:11:24.417Z,28.80
2017-05-30T08:13:52.707Z,28.10
2017-05-30T08:16:21.023Z,28.20
2017-05-30T08:18:49.647Z,28.70
2017-05-30T08:21:17.959Z,29.00
2017-05-30T08:23:46.263Z,28.80
2017-05-30T08:26:15.298Z,28.50
2017-05-30T08:28:43.609Z,28.50
2017-05-30T08:31:11.911Z,28.10
2017-05-30T08:33:40.444Z,27.80
2017-05-30T08:36:08.766Z,27.80
2017-05-30T08:38:37.085Z,27.00
2017-05-30T08:41:05.625Z,27.20
2017-05-30T08:43:33.920Z,27.70
2017-05-30T08:46:02.238Z,27.90
2017-05-30T08:48:30.866Z,27.70
2017-05-30T08:50:59.194Z,27.60
2017-05-30T08:53:27.515Z,27.60
2017-05-30T08:55:56.223Z,27.50
2017-05-30T08:58:24.537Z,27.60
2017-05-30T09:00:52.848Z,27.60
2017-05-30T09:03:21.377Z,27.60
2017-05-30T09:05:49.700Z,27.00
2017-05-30T09:08:18.031Z,26.70
2017-05-30T09:10:46.572Z,26.60
2017-05-30T09:13:14.872Z,26.40
2017-05-30T09:15:43.187Z,26.00
2017-05-30T09:18:11.719Z,25.60
2017-05-30T09:20:40.537Z,25.30
2017-05-30T09:23:09.286Z,24.80
2017-05-30T09:25:37.836Z,24.60
2017-05-30T09:28:06.145Z,24.60
2017-05-30T09:30:34.444Z,24.60
2017-05-30T09:33:03.091Z,24.90
2017-05-30T09:35:31.397Z,25.50
2017-05-30T09:37:59.704Z,26.10
2017-05-30T09:40:28.233Z,26.70
2017-05-30T09:42:56.556Z,27.00
2017-05-30T09:45:24.848Z,27.00
2017-05-30T09:47:53.450Z,27.50
2017-05-30T09:50:21.762Z,27.60
2017-05-30T09:52:49.541Z,27.60
2017-05-30T09:55:17.889Z,27.80
2017-05-30T09:57:46.212Z,27.90
2017-05-30T10:00:14.767Z,28.10
2017-05-30T10:02:43.074Z,27.50
2017-05-30T10:05:11.394Z,27.70
2017-05-30T10:07:40.157Z,27.60
2017-05-30T10:10:08.448Z,27.50
2017-05-30T10:12:36.785Z,27.60
2017-05-30T10:15:05.311Z,27.70
2017-05-30T10:17:33.612Z,28.00
2017-05-30T10:20:01.937Z,28.10
2017-05-30T10:22:30.463Z,28.00
2017-05-30T10:24:58.769Z,27.50
2017-05-30T10:27:27.076Z,26.80
2017-05-30T10:29:55.607Z,26.50
2017-05-30T10:32:23.906Z,26.40
2017-05-30T10:34:52.233Z,26.00
2017-05-30T10:37:20.962Z,25.70
2017-05-30T10:39:49.288Z,25.70
2017-05-30T10:42:17.863Z,25.50
2017-05-30T10:44:46.487Z,25.20
2017-05-30T10:47:14.832Z,25.10
2017-05-30T10:49:43.168Z,24.90
2017-05-30T10:52:10.952Z,24.90
2017-05-30T10:54:39.325Z,24.80
2017-05-30T10:57:07.699Z,24.70
2017-05-30T10:59:36.312Z,24.60
2017-05-30T11:02:04.619Z,24.60
2017-05-30T11:04:32.935Z,24.60
2017-05-30T11:07:01.670Z,24.60
2017-05-30T11:09:29.975Z,24.50
2017-05-30T11:11:58.348Z,24.50
2017-05-30T11:14:27.243Z,24.50
2017-05-30T11:16:55.590Z,24.50
2017-05-30T11:19:23.889Z,24.60
2017-05-30T11:21:52.538Z,24.80
2017-05-30T11:24:20.851Z,24.70
2017-05-30T11:26:49.143Z,24.80
2017-05-30T11:29:17.750Z,24.70
2017-05-30T11:31:46.095Z,25.00
2017-05-30T11:34:14.383Z,25.90
2017-05-30T11:36:42.229Z,25.80
2017-05-30T11:39:10.556Z,27.20
2017-05-30T11:41:38.874Z,27.40
2017-05-30T11:44:06.662Z,27.40
2017-05-30T11:46:34.961Z,27.90
2017-05-30T11:49:03.253Z,27.40
2017-05-30T11:51:31.852Z,26.90
2017-05-30T11:54:00.163Z,26.70
2017-05-30T11:56:28.484Z,26.70
2017-05-30T11:58:57.016Z,27.10
2017-05-30T12:01:24.556Z,27.10
2017-05-30T12:03:52.854Z,27.50
2017-05-30T12:06:21.506Z,27.30
2017-05-30T12:08:49.804Z,27.00
2017-05-30T12:11:18.133Z,26.90
2017-05-30T12:13:46.735Z,26.70
2017-05-30T12:16:15.058Z,27.10
2017-05-30T12:18:43.346Z,27.70
2017-05-30T12:21:11.972Z,27.60
2017-05-30T12:23:40.275Z,27.70
2017-05-30T12:26:08.700Z,27.90
2017-05-30T12:28:37.214Z,27.90
2017-05-30T12:31:05.529Z,27.40
2017-05-30T12:33:33.834Z,27.10
2017-05-30T12:36:02.391Z,27.70
2017-05-30T12:38:30.686Z,28.40
2017-05-30T12:40:58.991Z,28.60
2017-05-30T12:43:27.581Z,28.80
2017-05-30T12:45:55.865Z,28.70
2017-05-30T12:48:24.179Z,28.90
2017-05-30T12:50:53.021Z,29.00
2017-05-30T12:53:21.325Z,29.50
2017-05-30T12:55:49.640Z,29.40
2017-05-30T12:58:17.401Z,29.50
2017-05-30T13:00:45.697Z,30.10
2017-05-30T13:03:14.004Z,29.60
2017-05-30T13:05:42.597Z,29.10
2017-05-30T13:08:10.958Z,28.30
2017-05-30T13:10:39.276Z,27.80
2017-05-30T13:13:07.097Z,27.70
2017-05-30T13:15:35.415Z,30.80
2017-05-30T13:18:04.010Z,31.50
2017-05-30T13:20:32.410Z,31.70
2017-05-30T13:23:00.713Z,30.60
2017-05-30T13:25:29.237Z,30.90
2017-05-30T13:27:57.572Z,32.00
2017-05-30T13:30:25.934Z,33.10
2017-05-30T13:32:54.570Z,32.20
2017-05-30T13:35:22.890Z,31.90
2017-05-30T13:37:51.190Z,31.70
2017-05-30T13:40:19.807Z,31.00
2017-05-30T13:42:48.103Z,31.70
2017-05-30T13:45:16.407Z,32.40
2017-05-30T13:47:44.937Z,33.00
2017-05-30T13:50:13.247Z,34.10
2017-05-30T13:52:41.559Z,34.00
2017-05-30T13:55:10.343Z,31.60
2017-05-30T13:57:38.634Z,29.30
2017-05-30T14:00:06.960Z,28.60
2017-05-30T14:02:35.585Z,28.10
2017-05-30T14:05:03.893Z,28.70
2017-05-30T14:07:32.205Z,29.90
2017-05-30T14:10:01.239Z,29.10
2017-05-30T14:12:29.551Z,28.90
2017-05-30T14:14:57.870Z,29.30
2017-05-30T14:17:26.477Z,29.50
2017-05-30T14:19:54.785Z,29.60
2017-05-30T14:22:23.089Z,29.60
2017-05-30T14:24:51.699Z,28.30
2017-05-30T14:27:20.008Z,27.40
2017-05-30T14:29:48.312Z,27.10
2017-05-30T14:32:16.940Z,26.90
2017-05-30T14:34:45.266Z,26.60
2017-05-30T14:37:13.601Z,27.70
2017-05-30T14:39:42.186Z,28.90
2017-05-30T14:42:10.501Z,29.60
2017-05-30T14:44:38.830Z,30.10
2017-05-30T14:47:07.425Z,31.10
2017-05-30T14:49:35.740Z,30.50
2017-05-30T14:52:04.039Z,31.30
2017-05-30T14:54:32.658Z,30.50
2017-05-30T14:57:00.972Z,30.20
2017-05-30T14:59:29.288Z,30.70
2017-05-30T15:01:57.893Z,31.60
2017-05-30T15:04:26.225Z,32.80
2017-05-30T15:06:54.539Z,32.50
2017-05-30T15:09:23.168Z,30.70
2017-05-30T15:11:51.485Z,30.10
2017-05-30T15:14:19.786Z,30.50
2017-05-30T15:16:48.595Z,30.50
2017-05-30T15:19:16.943Z,30.50
2017-05-30T15:21:45.246Z,28.60
2017-05-30T15:24:13.826Z,27.70
2017-05-30T15:26:41.361Z,27.70
2017-05-30T15:29:09.667Z,26.30
2017-05-30T15:31:38.263Z,26.70
2017-05-30T15:34:06.578Z,26.60
2017-05-30T15:36:35.201Z,26.70
2017-05-30T15:39:03.782Z,26.50
2017-05-30T15:41:31.306Z,26.50
2017-05-30T15:43:59.619Z,28.90
2017-05-30T15:46:28.323Z,28.70
2017-05-30T15:48:56.626Z,28.10
2017-05-30T15:51:24.927Z,27.40
2017-05-30T15:53:53.543Z,26.90
2017-05-30T15:56:21.850Z,26.70
2017-05-30T15:58:50.160Z,26.30
2017-05-30T16:01:18.705Z,25.60
2017-05-30T16:03:47.006Z,25.40
2017-05-30T16:06:15.318Z,25.10
2017-05-30T16:08:43.903Z,25.10
2017-05-30T16:11:12.234Z,24.80
2017-05-30T16:13:40.980Z,24.60
2017-05-30T16:16:09.319Z,24.40
2017-05-30T16:18:37.642Z,24.60
2017-05-30T16:21:06.189Z,24.80
2017-05-30T16:23:34.536Z,24.90
2017-05-30T16:26:02.858Z,25.40
2017-05-30T16:28:33.585Z,25.60
2017-05-30T16:31:01.923Z,25.00
2017-05-30T16:33:30.224Z,24.60
2017-05-30T16:35:58.810Z,24.20
2017-05-30T16:38:27.106Z,23.80
2017-05-30T16:40:55.415Z,23.70
2017-05-30T16:43:24.050Z,23.50
2017-05-30T16:45:51.598Z,23.50
2017-05-30T16:48:19.897Z,23.40
2017-05-30T16:50:48.640Z,23.40
2017-05-30T16:53:16.986Z,23.60
2017-05-30T16:55:45.291Z,24.70
2017-05-30T16:58:14.078Z,24.70
2017-05-30T17:00:42.389Z,25.00
2017-05-30T17:03:10.708Z,25.80
2017-05-30T17:05:39.310Z,25.80
2017-05-30T17:08:07.625Z,25.20
2017-05-30T17:10:35.953Z,24.40
2017-05-30T17:13:05.407Z,24.40
2017-05-30T17:15:33.702Z,23.50
2017-05-30T17:18:02.017Z,23.20
2017-05-30T17:20:30.341Z,23.10
2017-05-30T17:22:58.663Z,23.10
2017-05-30T17:25:27.016Z,23.10
2017-05-30T17:27:55.323Z,23.00
2017-05-30T17:30:23.643Z,22.90
2017-05-30T17:32:51.217Z,22.90
2017-05-30T17:35:19.540Z,22.90
2017-05-30T17:37:48.144Z,22.90
2017-05-30T17:40:16.469Z,23.00
2017-05-30T17:42:44.029Z,23.00
2017-05-30T17:45:12.634Z,23.30
2017-05-30T17:47:40.975Z,23.40
2017-05-30T17:50:09.299Z,23.40
2017-05-30T17:52:38.091Z,23.50
2017-05-30T17:55:06.406Z,23.30
2017-05-30T17:57:34.720Z,23.20
2017-05-30T18:00:03.054Z,23.10
2017-05-30T18:02:31.445Z,22.90
2017-05-30T18:04:59.871Z,22.80
2017-05-30T18:07:27.728Z,22.80
2017-05-30T18:09:56.077Z,22.60
2017-05-30T18:12:24.398Z,22.50
2017-05-30T18:14:52.714Z,22.40
2017-05-30T18:17:20.255Z,22.40
2017-05-30T18:19:48.906Z,22.10
2017-05-30T18:22:17.230Z,22.00
2017-05-30T18:24:44.829Z,22.00
2017-05-30T18:27:13.169Z,21.90
2017-05-30T18:29:41.496Z,21.90
2017-05-30T18:32:09.819Z,21.80
2017-05-30T18:34:38.605Z,21.80
2017-05-30T18:37:07.035Z,21.70
2017-05-30T18:39:35.392Z,21.50
2017-05-30T18:42:04.412Z,21.60
2017-05-30T18:44:32.763Z,21.70
2017-05-30T18:47:04.032Z,21.60
2017-05-30T18:49:32.573Z,21.70
2017-05-30T18:52:00.986Z,21.70
2017-05-30T18:54:29.817Z,21.50
2017-05-30T18:56:58.264Z,21.30
2017-05-30T18:59:26.710Z,21.20
2017-05-30T19:01:55.051Z,21.10
2017-05-30T19:04:23.409Z,20.90
2017-05-30T19:06:52.043Z,20.80
2017-05-30T19:09:20.388Z,20.80
2017-05-30T19:11:48.961Z,20.60
2017-05-30T19:14:17.299Z,20.70
2017-05-30T19:16:45.659Z,20.70
2017-05-30T19:19:14.035Z,20.70
2017-05-30T19:21:43.022Z,20.60
2017-05-30T19:24:12.468Z,20.60
2017-05-30T19:26:41.055Z,20.60
2017-05-30T19:29:10.734Z,20.50
2017-05-30T19:31:39.061Z,20.50
2017-05-30T19:34:06.613Z,20.50
2017-05-30T19:36:34.948Z,20.40
2017-05-30T19:39:03.251Z,20.30
2017-05-30T19:41:31.583Z,20.20
2017-05-30T19:43:59.886Z,20.20
2017-05-30T19:46:27.660Z,20.10
2017-05-30T19:48:55.971Z,20.00
2017-05-30T19:51:24.294Z,19.90
2017-05-30T19:53:52.945Z,19.80
2017-05-30T19:56:21.258Z,19.80
2017-05-30T19:58:49.572Z,19.70
2017-05-30T20:01:17.141Z,19.70
2017-05-30T20:03:45.481Z,19.60
2017-05-30T20:06:14.105Z,19.60
2017-05-30T20:08:42.409Z,19.50
2017-05-30T20:11:10.745Z,19.50
2017-05-30T20:13:39.115Z,19.50
2017-05-30T20:16:07.479Z,19.40
2017-05-30T20:18:36.568Z,19.30
2017-05-30T20:21:04.896Z,19.20
2017-05-30T20:23:33.209Z,19.30
2017-05-30T20:26:01.582Z,19.20
2017-05-30T20:28:29.893Z,19.30
2017-05-30T20:30:58.241Z,19.30
2017-05-30T20:33:26.589Z,19.30
2017-05-30T20:35:54.948Z,19.20
2017-05-30T20:38:23.304Z,19.20
2017-05-30T20:40:51.621Z,19.30
2017-05-30T20:43:19.983Z,19.20
2017-05-30T20:45:48.354Z,19.20
2017-05-30T20:48:16.744Z,19.10
2017-05-30T20:50:45.335Z,19.00
2017-05-30T20:53:14.030Z,19.10
2017-05-30T20:55:42.829Z,19.00
2017-05-30T20:58:12.146Z,19.00
2017-05-30T21:00:41.538Z,19.00
2017-05-30T21:03:09.942Z,18.90
2017-05-30T21:05:38.702Z,18.90
2017-05-30T21:08:07.146Z,18.80
2017-05-30T21:10:35.582Z,18.80
2017-05-30T21:13:04.475Z,18.70
2017-05-30T21:15:32.773Z,18.70
2017-05-30T21:18:01.113Z,18.60
2017-05-30T21:20:29.640Z,18.60
2017-05-30T21:22:57.997Z,18.50
2017-05-30T21:25:26.302Z,18.40
2017-05-30T21:27:54.641Z,18.40
2017-05-30T21:30:22.956Z,18.30
2017-05-30T21:32:51.326Z,18.40
2017-05-30T21:35:19.627Z,18.30
2017-05-30T21:37:48.157Z,18.30
2017-05-30T21:40:16.487Z,18.30
2017-05-30T21:42:44.810Z,18.30
2017-05-30T21:45:13.147Z,18.20
2017-05-30T21:47:41.456Z,18.10
2017-05-30T21:50:10.073Z,18.10
2017-05-30T21:52:38.373Z,18.10
2017-05-30T21:55:06.657Z,18.10
2017-05-30T21:57:34.995Z,18.10
2017-05-30T22:00:03.308Z,18.10
2017-05-30T22:02:31.665Z,18.00
2017-05-30T22:04:59.958Z,17.90
2017-05-30T22:07:28.265Z,17.80
2017-05-30T22:09:57.485Z,17.70
2017-05-30T22:12:25.065Z,17.70
2017-05-30T22:14:53.354Z,17.50
2017-05-30T22:17:21.688Z,17.50
2017-05-30T22:19:50.045Z,17.40
2017-05-30T22:22:18.342Z,17.40
2017-05-30T22:24:46.651Z,17.40
2017-05-30T22:27:14.987Z,17.30
2017-05-30T22:29:43.317Z,17.30
2017-05-30T22:32:11.619Z,17.20
2017-05-30T22:34:39.930Z,17.10
2017-05-30T22:37:08.233Z,17.00
2017-05-30T22:39:36.543Z,16.90
2017-05-30T22:42:04.851Z,16.80
2017-05-30T22:44:33.164Z,16.80
2017-05-30T22:47:01.491Z,16.80
2017-05-30T22:49:29.783Z,16.60
2017-05-30T22:51:58.109Z,16.50
2017-05-30T22:54:26.424Z,16.50
2017-05-30T22:56:54.777Z,16.50
2017-05-30T22:59:23.076Z,16.50
2017-05-30T23:01:51.743Z,16.40
2017-05-30T23:04:20.054Z,16.40
2017-05-30T23:06:48.351Z,16.40
2017-05-30T23:09:16.669Z,16.50
2017-05-30T23:11:44.966Z,16.40
2017-05-30T23:14:13.255Z,16.40
2017-05-30T23:16:41.786Z,16.30
2017-05-30T23:19:10.085Z,16.30
2017-05-30T23:21:38.382Z,16.30
2017-05-30T23:24:06.703Z,16.20
2017-05-30T23:26:34.995Z,16.10
2017-05-30T23:29:03.303Z,16.00
2017-05-30T23:31:31.586Z,16.00
2017-05-30T23:33:59.887Z,15.90
2017-05-30T23:36:28.181Z,15.90
2017-05-30T23:38:56.496Z,15.90
2017-05-30T23:41:24.796Z,15.80
2017-05-30T23:43:53.118Z,15.80
2017-05-30T23:46:21.405Z,15.90
2017-05-30T23:48:49.736Z,15.80
2017-05-30T23:51:18.060Z,15.80
2017-05-30T23:53:45.594Z,15.70
2017-05-30T23:56:13.917Z,15.60
2017-05-30T23:58:42.228Z,15.60
